Time;durP1;ratioP1;P1;durP2;ratioP2;P2;SDS_P1;SDS_P2;PMS_P1;PMS_P2;Temp;Humidity;BMP_temperature;BMP_pressure;BME280_temperature;BME280_humidity;BME280_pressure;Samples;Min_cycle;Max_cycle;Signal;HPM_P1;HPM_P2
2023/12/23 00:02:21;;;;;;;6.70;2.97;;;;;;;;;;2614121;54;20398;-76
2023/12/23 00:07:51;;;;;;;8.50;3.40;;;;;;;;;;2613982;54;20407;-76
2023/12/23 00:13:23;;;;;;;14.83;2.80;;;;;;;;;;2614180;54;20369;-77
2023/12/23 00:18:53;;;;;;;4.27;1.50;;;;;;;;;;2611074;54;20359;-77
2023/12/23 00:27:54;;;;;;;10.33;2.00;;;;;;;;;;2613847;54;20436;-77
2023/12/23 00:33:24;;;;;;;6.10;1.77;;;;;;;;;;2613749;54;20440;-77
2023/12/23 00:38:54;;;;;;;4.83;1.73;;;;;;;;;;2613640;54;20910;-76
2023/12/23 00:44:23;;;;;;;4.00;1.63;;;;;;;;;;2613625;54;20926;-76
2023/12/23 00:49:55;;;;;;;6.87;2.27;;;;;;;;;;2614689;54;20352;-77
2023/12/23 00:55:25;;;;;;;6.20;2.30;;;;;;;;;;2610940;54;20419;-77
2023/12/23 01:00:59;;;;;;;1.63;1.00;;;;;;;;;;2612917;31;20936;-77
2023/12/23 01:06:29;;;;;;;4.87;2.20;;;;;;;;;;2613331;54;20504;-77
2023/12/23 01:12:01;;;;;;;4.00;1.93;;;;;;;;;;2612532;54;20388;-77
2023/12/23 01:17:31;;;;;;;7.33;1.93;;;;;;;;;;2614586;31;20846;-75
2023/12/23 01:23:01;;;;;;;4.60;1.40;;;;;;;;;;2614769;54;20385;-77
2023/12/23 01:28:31;;;;;;;5.30;2.23;;;;;;;;;;2611639;54;20444;-77
2023/12/23 01:34:00;;;;;;;15.83;2.47;;;;;;;;;;2612631;54;20400;-76
2023/12/23 01:39:30;;;;;;;4.83;1.70;;;;;;;;;;2611219;54;20986;-76
2023/12/23 01:45:00;;;;;;;6.43;3.27;;;;;;;;;;2614239;54;20407;-77
2023/12/23 01:50:32;;;;;;;8.53;2.97;;;;;;;;;;2613951;54;20395;-76
2023/12/23 01:56:04;;;;;;;3.70;1.30;;;;;;;;;;2613112;54;20415;-76
2023/12/23 02:01:40;;;;;;;5.40;1.90;;;;;;;;;;2614184;47;20433;-77
2023/12/23 02:07:12;;;;;;;6.23;2.17;;;;;;;;;;2612493;54;20505;-77
2023/12/23 02:12:47;;;;;;;8.03;1.77;;;;;;;;;;2613599;39;20785;-77
2023/12/23 02:18:17;;;;;;;4.70;1.90;;;;;;;;;;2614118;54;20372;-77
2023/12/23 02:23:46;;;;;;;11.73;4.10;;;;;;;;;;2615174;54;20910;-77
2023/12/23 02:32:57;;;;;;;7.83;3.03;;;;;;;;;;2612745;54;20390;-76
2023/12/23 02:38:26;;;;;;;7.30;3.33;;;;;;;;;;2610411;54;20379;-77
2023/12/23 02:43:58;;;;;;;12.70;2.20;;;;;;;;;;2613141;54;20397;-77
2023/12/23 02:49:28;;;;;;;11.23;3.00;;;;;;;;;;2614720;54;20387;-77
2023/12/23 02:55:07;;;;;;;14.50;3.07;;;;;;;;;;2615092;39;20758;-76
2023/12/23 03:00:39;;;;;;;4.80;2.20;;;;;;;;;;2612133;54;20365;-76
2023/12/23 03:06:13;;;;;;;3.97;2.17;;;;;;;;;;2613568;54;20379;-76
2023/12/23 03:11:43;;;;;;;7.63;3.20;;;;;;;;;;2612959;54;20387;-74
2023/12/23 03:17:15;;;;;;;6.17;3.70;;;;;;;;;;2611747;46;20407;-75
2023/12/23 03:22:45;;;;;;;5.50;2.20;;;;;;;;;;2614429;54;20435;-74
2023/12/23 03:28:14;;;;;;;10.97;2.73;;;;;;;;;;2614611;54;20550;-73
2023/12/23 03:33:49;;;;;;;7.33;2.63;;;;;;;;;;2615073;31;20869;-73
2023/12/23 03:39:18;;;;;;;7.20;2.93;;;;;;;;;;2613090;54;20383;-73
2023/12/23 03:44:48;;;;;;;8.83;4.47;;;;;;;;;;2614087;54;20386;-73
2023/12/23 03:50:20;;;;;;;9.10;5.50;;;;;;;;;;2613664;54;20945;-73
2023/12/23 03:53:05;;;;;;;15.90;9.47;;;;;;;;;;2613866;54;20437;-74
2023/12/23 03:55:32;;;;;;;11.10;6.23;;;;;;;;;;2612698;54;20495;-73
2023/12/23 04:01:02;;;;;;;8.70;6.13;;;;;;;;;;2613243;54;20403;-73
2023/12/23 04:06:32;;;;;;;8.23;6.27;;;;;;;;;;2614157;54;20368;-74
2023/12/23 04:12:01;;;;;;;6.13;4.07;;;;;;;;;;2614062;54;20907;-74
2023/12/23 04:17:31;;;;;;;7.77;4.60;;;;;;;;;;2614554;54;20922;-74
2023/12/23 04:23:03;;;;;;;10.43;5.07;;;;;;;;;;2613251;54;20390;-74
2023/12/23 04:34:24;;;;;;;5.43;3.47;;;;;;;;;;2612918;54;20364;-73
2023/12/23 04:39:56;;;;;;;8.10;4.73;;;;;;;;;;2612066;54;20934;-74
2023/12/23 04:45:25;;;;;;;6.63;4.67;;;;;;;;;;2614016;39;20806;-74
2023/12/23 04:50:58;;;;;;;32.77;5.80;;;;;;;;;;2613457;54;20475;-74
2023/12/23 04:56:28;;;;;;;15.43;5.30;;;;;;;;;;2613409;54;20370;-74
2023/12/23 05:01:58;;;;;;;6.27;3.80;;;;;;;;;;2612925;39;21079;-75
2023/12/23 05:07:27;;;;;;;8.93;5.93;;;;;;;;;;2614362;54;20362;-75
2023/12/23 05:12:57;;;;;;;6.30;5.07;;;;;;;;;;2611815;54;20389;-75
2023/12/23 05:18:26;;;;;;;11.63;6.47;;;;;;;;;;2612546;54;20486;-74
2023/12/23 05:23:56;;;;;;;11.67;5.60;;;;;;;;;;2614054;54;20367;-74
2023/12/23 05:33:00;;;;;;;14.10;6.43;;;;;;;;;;2610402;54;20450;-74
2023/12/23 05:38:30;;;;;;;6.00;4.70;;;;;;;;;;2613537;54;20370;-74
2023/12/23 05:43:59;;;;;;;7.63;6.00;;;;;;;;;;2614622;39;20754;-74
2023/12/23 05:49:29;;;;;;;11.10;6.70;;;;;;;;;;2613509;54;20512;-75
2023/12/23 05:54:59;;;;;;;10.80;6.13;;;;;;;;;;2612345;54;20391;-75
2023/12/23 06:00:29;;;;;;;12.67;4.93;;;;;;;;;;2613167;39;20920;-73
2023/12/23 06:05:58;;;;;;;16.53;4.47;;;;;;;;;;2615848;39;20720;-76
2023/12/23 06:11:28;;;;;;;6.10;4.17;;;;;;;;;;2615203;54;20397;-74
2023/12/23 06:16:58;;;;;;;9.20;4.57;;;;;;;;;;2615108;54;20961;-74
2023/12/23 06:22:28;;;;;;;8.40;3.77;;;;;;;;;;2613889;54;20388;-74
2023/12/23 06:28:02;;;;;;;11.70;6.60;;;;;;;;;;2613470;54;20381;-75
2023/12/23 06:33:32;;;;;;;8.50;3.40;;;;;;;;;;2611593;54;20371;-75
2023/12/23 06:39:03;;;;;;;16.70;5.17;;;;;;;;;;2612452;54;20407;-75
2023/12/23 06:44:35;;;;;;;7.90;5.90;;;;;;;;;;2614205;54;20391;-75
2023/12/23 06:56:04;;;;;;;14.17;5.10;;;;;;;;;;2613784;54;20360;-74
2023/12/23 07:01:38;;;;;;;13.57;5.23;;;;;;;;;;2613167;54;20499;-74
2023/12/23 07:07:07;;;;;;;26.50;5.50;;;;;;;;;;2614464;39;20727;-73
2023/12/23 07:12:37;;;;;;;18.07;4.80;;;;;;;;;;2613793;54;20394;-75
2023/12/23 07:18:07;;;;;;;3.43;2.47;;;;;;;;;;2612783;54;20466;-75
2023/12/23 07:23:44;;;;;;;9.43;3.60;;;;;;;;;;2614037;54;20431;-75
2023/12/23 07:29:17;;;;;;;9.67;3.37;;;;;;;;;;2612226;39;20894;-75
2023/12/23 07:34:47;;;;;;;7.07;4.50;;;;;;;;;;2612530;54;21156;-76
2023/12/23 07:40:16;;;;;;;16.60;4.57;;;;;;;;;;2611672;54;20968;-73
2023/12/23 07:45:48;;;;;;;5.27;2.67;;;;;;;;;;2612579;54;20426;-74
2023/12/23 07:51:22;;;;;;;9.60;3.80;;;;;;;;;;2613783;54;20389;-73
2023/12/23 07:56:56;;;;;;;5.47;3.10;;;;;;;;;;2611198;39;20694;-75
2023/12/23 08:02:25;;;;;;;14.60;5.40;;;;;;;;;;2611659;54;20351;-74
2023/12/23 08:08:00;;;;;;;3.93;2.30;;;;;;;;;;2613898;54;20421;-74
2023/12/23 08:13:30;;;;;;;12.43;3.93;;;;;;;;;;2614191;39;20504;-74
2023/12/23 08:19:00;;;;;;;5.57;3.20;;;;;;;;;;2612236;54;20527;-74
2023/12/23 08:24:34;;;;;;;17.67;5.23;;;;;;;;;;2611393;54;20425;-74
2023/12/23 08:33:44;;;;;;;8.90;3.50;;;;;;;;;;2613796;54;20431;-75
2023/12/23 08:39:16;;;;;;;4.10;2.30;;;;;;;;;;2613819;54;20459;-75
2023/12/23 08:44:49;;;;;;;3.60;2.40;;;;;;;;;;2614622;54;20371;-75
2023/12/23 08:50:20;;;;;;;4.43;2.50;;;;;;;;;;2614004;39;20746;-75
2023/12/23 08:55:49;;;;;;;12.93;3.10;;;;;;;;;;2613658;54;20373;-74
2023/12/23 08:58:34;;;;;;;9.90;2.23;;;;;;;;;;2614334;54;20405;-74
2023/12/23 09:01:00;;;;;;;4.80;2.80;;;;;;;;;;2613673;54;20452;-75
2023/12/23 09:06:35;;;;;;;11.80;3.60;;;;;;;;;;2613738;54;20396;-75
2023/12/23 09:12:05;;;;;;;5.00;3.50;;;;;;;;;;2613046;54;20932;-75
2023/12/23 09:17:35;;;;;;;5.77;3.07;;;;;;;;;;2614137;54;21008;-74
2023/12/23 09:23:07;;;;;;;10.10;2.90;;;;;;;;;;2614518;54;20387;-74
2023/12/23 09:28:40;;;;;;;20.73;3.00;;;;;;;;;;2614273;54;20923;-74
2023/12/23 09:34:12;;;;;;;4.10;2.93;;;;;;;;;;2611971;54;20483;-74
2023/12/23 09:39:41;;;;;;;4.20;2.30;;;;;;;;;;2613831;54;20420;-74
2023/12/23 09:45:14;;;;;;;6.50;2.40;;;;;;;;;;2614206;54;20459;-74
2023/12/23 09:50:44;;;;;;;3.57;1.93;;;;;;;;;;2613719;54;20393;-74
2023/12/23 09:56:15;;;;;;;5.07;1.73;;;;;;;;;;2613379;46;20412;-74
2023/12/23 10:01:45;;;;;;;6.67;1.93;;;;;;;;;;2613907;54;20433;-74
2023/12/23 10:07:15;;;;;;;7.23;2.93;;;;;;;;;;2613853;54;20355;-73
2023/12/23 10:12:47;;;;;;;4.40;1.60;;;;;;;;;;2613282;54;20381;-73
2023/12/23 10:18:16;;;;;;;8.37;2.87;;;;;;;;;;2612746;54;20395;-74
2023/12/23 10:23:46;;;;;;;7.10;1.90;;;;;;;;;;2613154;54;20409;-74
2023/12/23 10:29:20;;;;;;;2.70;1.43;;;;;;;;;;2610551;54;20355;-76
2023/12/23 10:38:21;;;;;;;4.73;2.37;;;;;;;;;;2612174;54;20386;-74
2023/12/23 10:40:52;;;;;;;5.77;1.70;;;;;;;;;;2609049;54;20417;-75
2023/12/23 10:46:21;;;;;;;4.53;2.47;;;;;;;;;;2611322;54;20491;-73
2023/12/23 10:51:54;;;;;;;3.17;2.53;;;;;;;;;;2609465;54;20401;-73
2023/12/23 10:57:23;;;;;;;7.93;2.93;;;;;;;;;;2611824;54;20429;-74
2023/12/23 11:02:58;;;;;;;4.20;3.70;;;;;;;;;;2611403;54;21017;-74
2023/12/23 11:08:29;;;;;;;4.07;2.60;;;;;;;;;;2612536;46;20380;-73
2023/12/23 11:13:59;;;;;;;4.73;3.03;;;;;;;;;;2614421;46;20942;-74
2023/12/23 11:19:29;;;;;;;4.83;2.20;;;;;;;;;;2612850;54;20366;-75
2023/12/23 11:25:01;;;;;;;4.23;2.20;;;;;;;;;;2611529;54;20524;-75
2023/12/23 11:30:31;;;;;;;4.70;2.70;;;;;;;;;;2614522;54;20485;-74
2023/12/23 11:39:35;;;;;;;8.40;2.87;;;;;;;;;;2613992;54;20424;-75
2023/12/23 11:45:07;;;;;;;3.73;1.77;;;;;;;;;;2613204;54;20348;-74
2023/12/23 11:50:37;;;;;;;7.60;3.87;;;;;;;;;;2611815;39;20454;-73
2023/12/23 11:56:07;;;;;;;5.00;2.30;;;;;;;;;;2612000;54;20424;-73
2023/12/23 12:01:37;;;;;;;7.90;2.30;;;;;;;;;;2613409;54;21132;-74
2023/12/23 12:07:07;;;;;;;9.43;2.90;;;;;;;;;;2614772;54;20948;-74
2023/12/23 12:12:36;;;;;;;9.00;3.23;;;;;;;;;;2611380;39;21310;-73
2023/12/23 12:18:06;;;;;;;5.93;3.97;;;;;;;;;;2612383;54;20396;-74
2023/12/23 12:23:36;;;;;;;5.60;2.00;;;;;;;;;;2612683;54;21150;-75
2023/12/23 12:29:05;;;;;;;6.67;2.80;;;;;;;;;;2614152;54;20386;-74
2023/12/23 12:34:35;;;;;;;4.83;2.23;;;;;;;;;;2614268;54;20423;-74
2023/12/23 12:40:07;;;;;;;7.37;2.33;;;;;;;;;;2610080;54;20569;-74
2023/12/23 12:45:37;;;;;;;9.97;2.30;;;;;;;;;;2612875;54;20365;-74
2023/12/23 12:51:07;;;;;;;19.93;3.33;;;;;;;;;;2610513;54;20407;-75
2023/12/23 12:53:51;;;;;;;7.67;3.13;;;;;;;;;;2613843;39;20822;-75
2023/12/23 12:56:20;;;;;;;7.27;2.50;;;;;;;;;;2610818;54;20460;-75
2023/12/23 13:01:50;;;;;;;10.93;3.50;;;;;;;;;;2611328;54;20461;-75
2023/12/23 13:07:20;;;;;;;4.60;2.40;;;;;;;;;;2610468;39;21078;-75
2023/12/23 13:12:53;;;;;;;5.40;2.20;;;;;;;;;;2610647;54;20511;-75
2023/12/23 13:18:23;;;;;;;4.07;1.83;;;;;;;;;;2610672;54;20402;-74
2023/12/23 13:23:53;;;;;;;3.20;1.43;;;;;;;;;;2610319;54;20485;-75
2023/12/23 13:29:23;;;;;;;7.50;2.10;;;;;;;;;;2611536;54;20374;-74
2023/12/23 13:34:55;;;;;;;2.63;1.00;;;;;;;;;;2610951;54;20367;-75
2023/12/23 13:43:53;;;;;;;19.00;3.57;;;;;;;;;;2612611;54;20967;-74
2023/12/23 13:49:22;;;;;;;8.23;1.93;;;;;;;;;;2613365;54;20416;-75
2023/12/23 13:54:52;;;;;;;14.60;2.53;;;;;;;;;;2612023;54;20397;-76
2023/12/23 14:00:22;;;;;;;7.93;1.60;;;;;;;;;;2612648;54;20956;-75
2023/12/23 14:05:51;;;;;;;2.40;1.63;;;;;;;;;;2609385;47;20800;-76
2023/12/23 14:11:21;;;;;;;6.13;2.40;;;;;;;;;;2610009;54;20450;-76
2023/12/23 14:16:51;;;;;;;3.00;1.40;;;;;;;;;;2611619;39;20770;-76
2023/12/23 14:22:20;;;;;;;2.27;1.40;;;;;;;;;;2613301;54;20415;-77
2023/12/23 14:27:53;;;;;;;3.67;1.13;;;;;;;;;;2613632;54;20913;-76
2023/12/23 14:33:23;;;;;;;4.50;1.70;;;;;;;;;;2613289;54;20382;-76
2023/12/23 14:38:53;;;;;;;4.80;2.10;;;;;;;;;;2612829;54;20521;-78
2023/12/23 14:44:25;;;;;;;6.40;2.40;;;;;;;;;;2614714;54;20442;-78
2023/12/23 14:49:55;;;;;;;7.03;2.60;;;;;;;;;;2614124;54;20406;-76
2023/12/23 14:55:27;;;;;;;5.30;1.70;;;;;;;;;;2612962;54;20368;-76
2023/12/23 15:00:59;;;;;;;4.40;1.93;;;;;;;;;;2610711;54;20349;-76
2023/12/23 15:06:30;;;;;;;2.80;1.83;;;;;;;;;;2612994;54;20372;-77
2023/12/23 15:12:00;;;;;;;9.10;2.27;;;;;;;;;;2612087;54;20379;-75
2023/12/23 15:17:29;;;;;;;3.37;1.40;;;;;;;;;;2613802;54;20401;-75
2023/12/23 15:22:59;;;;;;;4.10;1.77;;;;;;;;;;2613268;54;20974;-74
2023/12/23 15:28:28;;;;;;;2.20;1.70;;;;;;;;;;2613773;54;20362;-75
2023/12/23 15:34:05;;;;;;;6.90;1.93;;;;;;;;;;2614200;54;20479;-75
2023/12/23 15:39:36;;;;;;;5.40;3.17;;;;;;;;;;2614811;54;20386;-76
2023/12/23 15:48:46;;;;;;;3.37;1.60;;;;;;;;;;2613383;54;20438;-76
2023/12/23 15:54:15;;;;;;;1.90;1.13;;;;;;;;;;2612287;54;20394;-75
2023/12/23 15:59:45;;;;;;;13.33;1.30;;;;;;;;;;2614140;54;20948;-76
2023/12/23 16:05:15;;;;;;;4.80;1.87;;;;;;;;;;2612957;54;20412;-75
2023/12/23 16:10:44;;;;;;;4.17;2.50;;;;;;;;;;2614678;54;20360;-76
2023/12/23 16:16:14;;;;;;;10.33;2.67;;;;;;;;;;2614041;39;20792;-76
2023/12/23 16:21:46;;;;;;;3.43;2.10;;;;;;;;;;2609982;54;20537;-76
2023/12/23 16:27:19;;;;;;;5.17;3.30;;;;;;;;;;2610601;54;20390;-77
2023/12/23 16:32:53;;;;;;;12.07;2.87;;;;;;;;;;2611927;54;20441;-77
2023/12/23 16:38:25;;;;;;;6.10;3.50;;;;;;;;;;2612383;54;20388;-77
2023/12/23 16:43:55;;;;;;;7.33;2.10;;;;;;;;;;2613990;54;20397;-77
2023/12/23 16:55:21;;;;;;;4.10;3.20;;;;;;;;;;2613371;54;21564;-77
2023/12/23 17:00:50;;;;;;;8.80;2.83;;;;;;;;;;2614715;54;20355;-77
2023/12/23 17:06:20;;;;;;;4.87;2.47;;;;;;;;;;2613641;54;20461;-76
2023/12/23 17:11:49;;;;;;;7.70;3.90;;;;;;;;;;2614230;54;20362;-77
2023/12/23 17:17:19;;;;;;;8.40;5.07;;;;;;;;;;2614259;54;20391;-76
2023/12/23 17:22:53;;;;;;;6.03;3.67;;;;;;;;;;2614362;54;20407;-77
2023/12/23 17:28:23;;;;;;;8.20;5.07;;;;;;;;;;2613481;54;20516;-76
2023/12/23 17:33:52;;;;;;;5.23;3.73;;;;;;;;;;2613487;54;20403;-76
2023/12/23 17:39:23;;;;;;;5.37;4.77;;;;;;;;;;2613427;54;20431;-75
2023/12/23 17:44:55;;;;;;;7.10;6.40;;;;;;;;;;2613645;39;20804;-76
2023/12/23 17:50:25;;;;;;;6.47;5.10;;;;;;;;;;2615040;39;20819;-76
2023/12/23 17:55:54;;;;;;;11.60;7.33;;;;;;;;;;2613640;54;20359;-76
2023/12/23 18:01:26;;;;;;;9.00;5.00;;;;;;;;;;2613632;54;20495;-75
2023/12/23 18:06:56;;;;;;;10.50;7.53;;;;;;;;;;2614293;54;20407;-76
2023/12/23 18:12:26;;;;;;;14.47;7.83;;;;;;;;;;2614888;54;20396;-76
2023/12/23 18:17:59;;;;;;;7.20;6.13;;;;;;;;;;2614602;54;20363;-77
2023/12/23 18:23:28;;;;;;;11.50;7.93;;;;;;;;;;2614423;54;20400;-76
2023/12/23 18:28:58;;;;;;;7.87;6.30;;;;;;;;;;2614193;54;20406;-77
2023/12/23 18:34:31;;;;;;;6.10;4.20;;;;;;;;;;2614726;54;20360;-76
2023/12/23 18:40:01;;;;;;;8.97;7.53;;;;;;;;;;2612477;54;20380;-76
2023/12/23 18:45:36;;;;;;;5.07;4.17;;;;;;;;;;2614544;54;20470;-76
2023/12/23 18:54:50;;;;;;;12.93;7.13;;;;;;;;;;2613645;46;20443;-76
2023/12/23 19:00:29;;;;;;;8.70;6.10;;;;;;;;;;2614598;54;20395;-75
2023/12/23 19:05:59;;;;;;;6.83;6.10;;;;;;;;;;2614394;54;20362;-74
2023/12/23 19:11:29;;;;;;;5.67;4.33;;;;;;;;;;2613772;54;20414;-74
2023/12/23 19:17:00;;;;;;;5.50;4.10;;;;;;;;;;2614547;39;20758;-75
2023/12/23 19:22:32;;;;;;;4.93;3.73;;;;;;;;;;2614203;54;20369;-78
2023/12/23 19:28:04;;;;;;;9.90;6.50;;;;;;;;;;2614248;31;20838;-76
2023/12/23 19:33:36;;;;;;;9.07;5.30;;;;;;;;;;2613997;54;20413;-74
2023/12/23 19:39:07;;;;;;;10.93;6.37;;;;;;;;;;2614331;54;20941;-76
2023/12/23 19:44:36;;;;;;;6.20;4.63;;;;;;;;;;2613713;54;20421;-76
2023/12/23 19:50:09;;;;;;;7.83;3.90;;;;;;;;;;2614363;54;20384;-74
2023/12/23 19:55:41;;;;;;;6.73;5.00;;;;;;;;;;2614079;54;20413;-76
2023/12/23 20:01:11;;;;;;;5.50;3.93;;;;;;;;;;2614329;54;20393;-76
2023/12/23 20:06:40;;;;;;;6.87;3.77;;;;;;;;;;2614090;54;20363;-76
2023/12/23 20:12:10;;;;;;;4.80;4.27;;;;;;;;;;2612733;54;20385;-77
2023/12/23 20:17:40;;;;;;;9.53;4.70;;;;;;;;;;2614626;54;20410;-76
2023/12/23 20:23:09;;;;;;;6.63;4.10;;;;;;;;;;2614383;54;20954;-77
2023/12/23 20:28:40;;;;;;;7.13;4.60;;;;;;;;;;2614460;54;20971;-76
2023/12/23 20:34:10;;;;;;;9.23;4.97;;;;;;;;;;2614668;54;20369;-76
2023/12/23 20:39:39;;;;;;;19.47;4.27;;;;;;;;;;2614287;54;20403;-78
2023/12/23 20:45:12;;;;;;;5.70;4.03;;;;;;;;;;2614873;54;20414;-77
2023/12/23 20:56:54;;;;;;;4.40;3.30;;;;;;;;;;2613868;54;20369;-78
2023/12/23 21:02:26;;;;;;;4.20;2.80;;;;;;;;;;2614710;54;20477;-79
2023/12/23 21:07:57;;;;;;;4.33;3.07;;;;;;;;;;2614127;54;20398;-77
2023/12/23 21:13:29;;;;;;;5.10;3.80;;;;;;;;;;2615076;54;20363;-78
2023/12/23 21:18:59;;;;;;;8.13;4.00;;;;;;;;;;2614337;54;20375;-78
2023/12/23 21:24:31;;;;;;;5.13;2.80;;;;;;;;;;2614291;54;20418;-77
2023/12/23 21:30:04;;;;;;;6.73;2.73;;;;;;;;;;2614957;54;20485;-78
2023/12/23 21:35:36;;;;;;;2.13;1.90;;;;;;;;;;2613796;54;20359;-78
2023/12/23 21:41:06;;;;;;;3.90;2.83;;;;;;;;;;2613862;54;20508;-78
2023/12/23 21:46:36;;;;;;;3.60;2.10;;;;;;;;;;2614333;54;20363;-76
2023/12/23 21:55:54;;;;;;;11.50;2.43;;;;;;;;;;2614250;54;20423;-78
2023/12/23 22:01:24;;;;;;;3.87;2.40;;;;;;;;;;2614345;54;20378;-77
2023/12/23 22:06:54;;;;;;;3.57;2.13;;;;;;;;;;2614839;54;20370;-77
2023/12/23 22:12:29;;;;;;;6.00;2.67;;;;;;;;;;2614469;39;20743;-77
2023/12/23 22:17:59;;;;;;;10.90;3.03;;;;;;;;;;2615004;54;20441;-75
2023/12/23 22:23:29;;;;;;;4.90;1.87;;;;;;;;;;2613857;54;20491;-75
2023/12/23 22:29:05;;;;;;;6.03;3.20;;;;;;;;;;2614301;39;20869;-75
2023/12/23 22:34:35;;;;;;;5.77;2.70;;;;;;;;;;2612863;39;20892;-76
2023/12/23 22:40:06;;;;;;;5.57;3.13;;;;;;;;;;2613899;46;20412;-75
2023/12/23 22:45:36;;;;;;;4.90;2.83;;;;;;;;;;2614398;54;20425;-76
2023/12/23 22:51:06;;;;;;;5.80;2.77;;;;;;;;;;2614265;54;20357;-74
2023/12/23 22:56:39;;;;;;;4.07;3.00;;;;;;;;;;2614509;54;20393;-74
2023/12/23 23:02:09;;;;;;;4.13;2.00;;;;;;;;;;2613953;54;20380;-74
2023/12/23 23:07:39;;;;;;;5.00;2.30;;;;;;;;;;2613815;54;20349;-76
2023/12/23 23:10:24;;;;;;;7.53;3.30;;;;;;;;;;2612307;47;20460;-75
2023/12/23 23:12:51;;;;;;;4.63;2.00;;;;;;;;;;2613352;54;20460;-75
2023/12/23 23:18:21;;;;;;;4.57;2.87;;;;;;;;;;2615152;54;20951;-74
2023/12/23 23:23:52;;;;;;;7.00;2.70;;;;;;;;;;2614478;54;20367;-75
2023/12/23 23:29:23;;;;;;;8.90;2.40;;;;;;;;;;2615290;54;20423;-78
2023/12/23 23:34:53;;;;;;;3.03;2.50;;;;;;;;;;2614778;54;20422;-77
2023/12/23 23:40:23;;;;;;;5.70;2.90;;;;;;;;;;2614634;54;20383;-78
2023/12/23 23:45:52;;;;;;;7.93;3.13;;;;;;;;;;2615220;54;20374;-78
2023/12/23 23:51:22;;;;;;;8.67;4.50;;;;;;;;;;2614501;54;20354;-78
2023/12/23 23:56:52;;;;;;;4.30;2.50;;;;;;;;;;2614375;54;20426;-77
